createdAt,value
2017-02-18T00:00:23.280Z,62.45
2017-02-18T00:01:32.303Z,62.84
2017-02-18T00:02:41.325Z,62.26
2017-02-18T00:03:50.340Z,61.87
2017-02-18T00:04:59.376Z,62.26
2017-02-18T00:06:08.379Z,62.64
2017-02-18T00:07:17.401Z,62.81
2017-02-18T00:08:26.418Z,62.84
2017-02-18T00:09:35.432Z,62.99
2017-02-18T00:10:44.444Z,62.61
2017-02-18T00:11:53.466Z,62.04
2017-02-18T00:13:02.472Z,62.52
2017-02-18T00:14:11.510Z,62.42
2017-02-18T00:15:20.520Z,62.13
2017-02-18T00:16:29.534Z,62.42
2017-02-18T00:17:38.568Z,62.99
2017-02-18T00:18:47.613Z,63.16
2017-02-18T00:19:56.636Z,62.48
2017-02-18T00:21:05.646Z,62.87
2017-02-18T00:22:14.658Z,62.39
2017-02-18T00:23:23.657Z,63.06
2017-02-18T00:24:32.684Z,62.58
2017-02-18T00:25:41.694Z,62.48
2017-02-18T00:26:50.720Z,62.39
2017-02-18T00:27:59.745Z,62.29
2017-02-18T00:29:09.190Z,63.25
2017-02-18T00:30:18.239Z,63.06
2017-02-18T00:31:27.681Z,63.32
2017-02-18T00:32:36.709Z,63.06
2017-02-18T00:33:45.715Z,63.12
2017-02-18T00:34:54.739Z,63.06
2017-02-18T00:36:04.578Z,63.12
2017-02-18T00:37:13.604Z,63.03
2017-02-18T00:38:22.610Z,63.51
2017-02-18T00:39:32.046Z,63.51
2017-02-18T00:40:41.523Z,63.51
2017-02-18T00:41:50.531Z,63.7
2017-02-18T00:42:59.556Z,63.51
2017-02-18T00:44:08.981Z,63.51
2017-02-18T00:45:18.403Z,63.6
2017-02-18T00:46:27.418Z,64.28
2017-02-18T00:47:36.439Z,63.96
2017-02-18T00:48:45.461Z,63.86
2017-02-18T00:49:54.896Z,63.99
2017-02-18T00:51:03.908Z,64.25
2017-02-18T00:52:12.908Z,63.96
2017-02-18T00:53:21.941Z,63.48
2017-02-18T00:54:31.006Z,63.38
2017-02-18T00:55:40.017Z,63.48
2017-02-18T00:56:49.032Z,63.76
2017-02-18T00:57:58.054Z,63.57
2017-02-18T00:59:07.060Z,64.25
2017-02-18T01:00:16.074Z,64.25
2017-02-18T01:01:25.078Z,64.05
2017-02-18T01:02:34.096Z,64.05
2017-02-18T01:03:43.092Z,64.34
2017-02-18T01:04:52.103Z,64.25
2017-02-18T01:06:01.110Z,64.43
2017-02-18T01:07:10.538Z,64.43
2017-02-18T01:08:19.546Z,64.05
2017-02-18T01:09:28.553Z,64.34
2017-02-18T01:10:37.574Z,64.15
2017-02-18T01:11:46.589Z,63.96
2017-02-18T01:12:55.613Z,64.34
2017-02-18T01:14:04.639Z,64.59
2017-02-18T01:15:13.671Z,64.69
2017-02-18T01:16:22.708Z,64.5
2017-02-18T01:17:31.730Z,64.69
2017-02-18T01:18:40.752Z,64.69
2017-02-18T01:19:49.789Z,64.59
2017-02-18T01:20:58.805Z,64.59
2017-02-18T01:22:07.821Z,64.31
2017-02-18T01:23:16.833Z,64.79
2017-02-18T01:24:25.873Z,64.89
2017-02-18T01:25:34.908Z,64.98
2017-02-18T01:26:43.909Z,64.79
2017-02-18T01:27:52.942Z,65.36
2017-02-18T01:29:02.394Z,65.26
2017-02-18T01:30:11.406Z,65.08
2017-02-18T01:31:20.847Z,65.17
2017-02-18T01:32:30.695Z,64.79
2017-02-18T01:33:39.704Z,65.08
2017-02-18T01:34:48.718Z,64.89
2017-02-18T01:35:57.724Z,64.69
2017-02-18T01:37:06.767Z,64.79
2017-02-18T01:38:15.779Z,64.98
2017-02-18T01:39:24.798Z,64.76
2017-02-18T01:40:33.810Z,65.42
2017-02-18T01:41:42.824Z,65.05
2017-02-18T01:42:51.850Z,65.26
2017-02-18T01:44:00.854Z,65.42
2017-02-18T01:45:09.857Z,64.95
2017-02-18T01:46:18.874Z,64.66
2017-02-18T01:47:27.896Z,64.79
2017-02-18T01:48:36.906Z,64.85
2017-02-18T01:49:46.333Z,64.95
2017-02-18T01:50:55.366Z,65.42
2017-02-18T01:52:04.376Z,65.33
2017-02-18T01:53:13.387Z,65.05
2017-02-18T01:54:22.407Z,64.95
2017-02-18T01:55:31.405Z,64.66
2017-02-18T01:56:40.478Z,64.85
2017-02-18T01:57:49.471Z,64.85
2017-02-18T01:58:58.496Z,65.05
2017-02-18T02:00:07.928Z,65.42
2017-02-18T02:01:16.955Z,65.23
2017-02-18T02:02:25.969Z,65.05
2017-02-18T02:03:34.987Z,65.05
2017-02-18T02:04:44.003Z,65.42
2017-02-18T02:05:53.008Z,65.14
2017-02-18T02:07:02.042Z,65.05
2017-02-18T02:08:11.060Z,64.95
2017-02-18T02:09:20.076Z,65.33
2017-02-18T02:10:29.069Z,64.66
2017-02-18T02:11:38.092Z,65.05
2017-02-18T02:12:47.088Z,64.85
2017-02-18T02:13:56.115Z,65.23
2017-02-18T02:15:05.135Z,65.33
2017-02-18T02:16:14.154Z,65.33
2017-02-18T02:17:23.180Z,65.05
2017-02-18T02:18:32.603Z,65.2
2017-02-18T02:19:41.620Z,65.05
2017-02-18T02:20:50.656Z,65.23
2017-02-18T02:21:59.724Z,65.78
2017-02-18T02:23:08.747Z,65.78
2017-02-18T02:24:17.754Z,65.68
2017-02-18T02:25:26.792Z,65.68
2017-02-18T02:26:35.796Z,65.88
2017-02-18T02:27:44.815Z,65.97
2017-02-18T02:28:53.841Z,65.39
2017-02-18T02:30:02.846Z,65.49
2017-02-18T02:31:11.854Z,66.16
2017-02-18T02:32:20.885Z,65.88
2017-02-18T02:33:29.895Z,65.88
2017-02-18T02:34:38.910Z,66.06
2017-02-18T02:35:48.382Z,66.06
2017-02-18T02:36:57.376Z,66.06
2017-02-18T02:38:06.393Z,65.68
2017-02-18T02:39:15.432Z,65.88
2017-02-18T02:40:24.419Z,65.68
2017-02-18T02:41:33.424Z,66.06
2017-02-18T02:42:42.844Z,65.68
2017-02-18T02:43:51.863Z,65.58
2017-02-18T02:45:00.873Z,65.68
2017-02-18T02:46:09.895Z,65.88
2017-02-18T02:47:18.926Z,66.06
2017-02-18T02:48:27.940Z,65.58
2017-02-18T02:49:36.961Z,65.49
2017-02-18T02:50:45.970Z,65.58
2017-02-18T02:51:54.988Z,65.88
2017-02-18T02:53:04.413Z,65.68
2017-02-18T02:54:13.422Z,65.3
2017-02-18T02:55:22.430Z,65.2
2017-02-18T02:56:31.449Z,65.11
2017-02-18T02:57:40.448Z,65.01
2017-02-18T02:58:49.518Z,65.2
2017-02-18T02:59:58.568Z,65.33
2017-02-18T03:01:08.003Z,65.3
2017-02-18T03:02:17.001Z,65.2
2017-02-18T03:03:26.034Z,65.2
2017-02-18T03:04:35.064Z,65.11
2017-02-18T03:05:44.053Z,65.11
2017-02-18T03:06:53.067Z,65.3
2017-02-18T03:08:02.106Z,64.82
2017-02-18T03:09:11.112Z,65.3
2017-02-18T03:10:20.537Z,65.3
2017-02-18T03:11:29.540Z,65.11
2017-02-18T03:12:38.562Z,65.97
2017-02-18T03:13:47.596Z,65.2
2017-02-18T03:14:56.619Z,65.58
2017-02-18T03:16:05.640Z,65.68
2017-02-18T03:17:14.669Z,65.58
2017-02-18T03:18:23.682Z,65.58
2017-02-18T03:19:33.105Z,65.74
2017-02-18T03:20:42.124Z,65.74
2017-02-18T03:21:51.145Z,65.84
2017-02-18T03:23:00.226Z,65.65
2017-02-18T03:24:09.241Z,65.65
2017-02-18T03:25:18.677Z,65.74
2017-02-18T03:26:27.695Z,65.65
2017-02-18T03:27:36.698Z,65.84
2017-02-18T03:28:45.720Z,65.74
2017-02-18T03:29:54.715Z,66.13
2017-02-18T03:31:04.173Z,65.55
2017-02-18T03:32:13.185Z,65.74
2017-02-18T03:33:22.198Z,65.84
2017-02-18T03:34:31.230Z,65.65
2017-02-18T03:35:40.243Z,65.65
2017-02-18T03:36:49.253Z,65.84
2017-02-18T03:37:58.272Z,65.65
2017-02-18T03:39:07.301Z,66.13
2017-02-18T03:40:16.309Z,66.13
2017-02-18T03:41:25.332Z,65.88
2017-02-18T03:42:34.339Z,65.74
2017-02-18T03:43:43.353Z,65.78
2017-02-18T03:44:52.356Z,66.03
2017-02-18T03:46:01.782Z,65.74
2017-02-18T03:47:10.777Z,65.74
2017-02-18T03:48:19.785Z,65.74
2017-02-18T03:49:28.834Z,65.74
2017-02-18T03:50:38.262Z,65.65
2017-02-18T03:51:47.286Z,65.55
2017-02-18T03:52:56.711Z,65.84
2017-02-18T03:54:05.742Z,65.84
2017-02-18T03:55:14.747Z,65.84
2017-02-18T03:56:23.761Z,65.45
2017-02-18T03:57:32.788Z,66.03
2017-02-18T03:58:41.806Z,65.65
2017-02-18T03:59:51.407Z,65.94
2017-02-18T04:01:00.418Z,66.13
2017-02-18T04:02:09.441Z,66.13
2017-02-18T04:03:18.462Z,65.94
2017-02-18T04:04:27.484Z,66.03
2017-02-18T04:05:36.506Z,66.13
2017-02-18T04:06:45.526Z,66.13
2017-02-18T04:07:54.553Z,65.94
2017-02-18T04:09:03.580Z,66.13
2017-02-18T04:10:12.591Z,66.22
2017-02-18T04:11:21.701Z,66.19
2017-02-18T04:12:30.731Z,66
2017-02-18T04:13:39.748Z,66.32
2017-02-18T04:14:48.897Z,67.08
2017-02-18T04:15:58.094Z,66.61
2017-02-18T04:17:07.274Z,66.51
2017-02-18T04:18:16.731Z,66.67
2017-02-18T04:19:25.820Z,66
2017-02-18T04:20:35.384Z,66.22
2017-02-18T04:21:44.385Z,66
2017-02-18T04:22:53.401Z,65.74
2017-02-18T04:24:02.417Z,65.94
2017-02-18T04:25:11.820Z,65.74
2017-02-18T04:26:20.856Z,66.03
2017-02-18T04:27:30.053Z,65.74
2017-02-18T04:28:39.056Z,65.65
2017-02-18T04:29:48.549Z,66.03
2017-02-18T04:30:57.637Z,65.94
2017-02-18T04:32:06.978Z,65.84
2017-02-18T04:33:16.271Z,65.65
2017-02-18T04:34:25.617Z,66.03
2017-02-18T04:35:34.619Z,65.45
2017-02-18T04:36:44.136Z,65.84
2017-02-18T04:37:53.163Z,66.03
2017-02-18T04:39:02.616Z,66.13
2017-02-18T04:40:11.719Z,65.74
2017-02-18T04:41:20.883Z,66.03
2017-02-18T04:42:29.874Z,66.19
2017-02-18T04:43:38.921Z,66.03
2017-02-18T04:44:47.987Z,66.03
2017-02-18T04:45:57.022Z,66.76
2017-02-18T04:47:06.042Z,66.61
2017-02-18T04:48:15.052Z,66.41
2017-02-18T04:49:24.060Z,66.22
2017-02-18T04:50:33.489Z,66.7
2017-02-18T04:51:42.507Z,66.7
2017-02-18T04:52:51.932Z,66.8
2017-02-18T04:54:01.032Z,66.7
2017-02-18T04:55:10.108Z,66.13
2017-02-18T04:56:19.132Z,66.51
2017-02-18T04:57:28.178Z,66.51
2017-02-18T04:58:37.777Z,67.27
2017-02-18T04:59:46.794Z,67.14
2017-02-18T05:00:55.846Z,67.14
2017-02-18T05:02:05.318Z,67.53
2017-02-18T05:03:14.951Z,67.43
2017-02-18T05:04:24.016Z,67.34
2017-02-18T05:05:33.064Z,67.05
2017-02-18T05:06:42.127Z,66.96
2017-02-18T05:07:51.552Z,67.27
2017-02-18T05:09:00.916Z,67.56
2017-02-18T05:10:10.486Z,67.63
2017-02-18T05:11:19.507Z,67.34
2017-02-18T05:12:28.523Z,67.34
2017-02-18T05:13:37.565Z,67.34
2017-02-18T05:14:46.924Z,67.05
2017-02-18T05:15:56.061Z,67.63
2017-02-18T05:17:05.488Z,67.72
2017-02-18T05:18:15.134Z,67.53
2017-02-18T05:19:24.700Z,67.43
2017-02-18T05:20:33.867Z,67.34
2017-02-18T05:21:42.958Z,67.43
2017-02-18T05:22:52.004Z,67.91
2017-02-18T05:24:01.026Z,67.63
2017-02-18T05:25:10.067Z,67.63
2017-02-18T05:26:19.148Z,67.63
2017-02-18T05:27:28.156Z,68.01
2017-02-18T05:28:37.188Z,68.2
2017-02-18T05:29:46.195Z,68.2
2017-02-18T05:30:55.352Z,67.72
2017-02-18T05:32:04.611Z,67.43
2017-02-18T05:33:13.622Z,67.63
2017-02-18T05:34:22.646Z,67.43
2017-02-18T05:35:31.665Z,67.72
2017-02-18T05:36:40.856Z,67.63
2017-02-18T05:37:49.991Z,67.53
2017-02-18T05:38:59.394Z,67.43
2017-02-18T05:40:08.479Z,67.53
2017-02-18T05:41:17.561Z,67.63
2017-02-18T05:42:26.641Z,68.2
2017-02-18T05:43:35.689Z,68.29
2017-02-18T05:44:45.122Z,67.72
2017-02-18T05:45:54.192Z,67.43
2017-02-18T05:47:03.230Z,67.43
2017-02-18T05:48:12.239Z,67.72
2017-02-18T05:49:21.713Z,67.82
2017-02-18T05:50:30.933Z,68.29
2017-02-18T05:51:39.964Z,68.68
2017-02-18T05:52:49.007Z,68.01
2017-02-18T05:53:58.427Z,67.72
2017-02-18T05:55:07.442Z,67.63
2017-02-18T05:56:16.786Z,67.82
2017-02-18T05:57:25.822Z,67.63
2017-02-18T05:58:34.840Z,68.01
2017-02-18T05:59:43.893Z,68.01
2017-02-18T06:00:52.912Z,68.01
2017-02-18T06:02:01.958Z,67.72
2017-02-18T06:03:10.995Z,67.91
2017-02-18T06:04:20.066Z,68.2
2017-02-18T06:05:29.151Z,68.29
2017-02-18T06:06:38.242Z,68.29
2017-02-18T06:07:47.886Z,68.1
2017-02-18T06:08:57.801Z,68.29
2017-02-18T06:10:06.878Z,68.58
2017-02-18T06:11:15.878Z,68.29
2017-02-18T06:12:25.311Z,68.2
2017-02-18T06:13:34.332Z,68.2
2017-02-18T06:14:43.344Z,68.2
2017-02-18T06:15:52.372Z,68.1
2017-02-18T06:17:03.501Z,68.2
2017-02-18T06:18:16.502Z,68.29
2017-02-18T06:19:25.542Z,68.39
2017-02-18T06:20:35.898Z,68.2
2017-02-18T06:21:50.683Z,68.49
2017-02-18T06:23:04.995Z,68.55
2017-02-18T06:24:18.322Z,68.68
2017-02-18T06:25:31.695Z,68.68
2017-02-18T06:26:45.686Z,68.49
2017-02-18T06:27:59.620Z,68.1
2017-02-18T06:29:13.176Z,68.39
2017-02-18T06:30:27.042Z,68.2
2017-02-18T06:31:40.977Z,68.39
2017-02-18T06:32:54.872Z,67.91
2017-02-18T06:34:08.741Z,68.29
2017-02-18T06:35:23.564Z,68.01
2017-02-18T06:36:37.360Z,68.49
2017-02-18T06:37:51.376Z,68.01
2017-02-18T06:39:04.462Z,68.29
2017-02-18T06:40:13.490Z,68.39
2017-02-18T06:41:22.589Z,68.29
2017-02-18T06:42:31.826Z,68.01
2017-02-18T06:43:42.643Z,68.1
2017-02-18T06:44:55.261Z,67.91
2017-02-18T06:46:08.158Z,68.29
2017-02-18T06:47:22.503Z,68.39
2017-02-18T06:48:36.141Z,67.91
2017-02-18T06:49:50.446Z,68.2
2017-02-18T06:51:05.120Z,68.29
2017-02-18T06:52:19.568Z,68.29
2017-02-18T06:53:33.866Z,68.2
2017-02-18T06:54:48.509Z,68.2
2017-02-18T06:56:01.921Z,68.39
2017-02-18T06:57:16.162Z,68.29
2017-02-18T06:58:30.927Z,68.2
2017-02-18T06:59:44.921Z,68.1
2017-02-18T07:00:58.888Z,68.2
2017-02-18T07:02:12.208Z,68.29
2017-02-18T07:03:27.136Z,68.68
2017-02-18T07:04:41.985Z,68.29
2017-02-18T07:05:54.722Z,68.2
2017-02-18T07:07:04.151Z,68.2
2017-02-18T07:08:13.169Z,68.2
2017-02-18T07:09:22.182Z,68.29
2017-02-18T07:10:31.196Z,68.68
2017-02-18T07:11:40.211Z,68.68
2017-02-18T07:12:49.233Z,68.77
2017-02-18T07:13:58.234Z,68.39
2017-02-18T07:15:07.282Z,68.01
2017-02-18T07:16:16.298Z,68.29
2017-02-18T07:17:25.320Z,68.1
2017-02-18T07:18:34.494Z,68.39
2017-02-18T07:19:43.523Z,68.96
2017-02-18T07:20:52.529Z,68.58
2017-02-18T07:22:01.544Z,68.87
2017-02-18T07:23:10.589Z,68.84
2017-02-18T07:24:19.646Z,68.64
2017-02-18T07:25:28.678Z,68.58
2017-02-18T07:26:37.706Z,68.64
2017-02-18T07:27:46.719Z,68.55
2017-02-18T07:28:55.735Z,68.87
2017-02-18T07:30:04.746Z,68.87
2017-02-18T07:31:13.760Z,68.35
2017-02-18T07:32:22.773Z,68.58
2017-02-18T07:33:31.778Z,68.68
2017-02-18T07:34:40.803Z,68.58
2017-02-18T07:35:49.895Z,68.77
2017-02-18T07:36:59.003Z,68.93
2017-02-18T07:38:08.042Z,69.21
2017-02-18T07:39:17.058Z,69.12
2017-02-18T07:40:26.065Z,68.87
2017-02-18T07:41:35.084Z,69.02
2017-02-18T07:42:44.094Z,69.12
2017-02-18T07:43:53.115Z,68.93
2017-02-18T07:45:02.138Z,69.12
2017-02-18T07:46:11.587Z,69.35
2017-02-18T07:47:21.032Z,68.74
2017-02-18T07:48:30.053Z,68.87
2017-02-18T07:49:41.062Z,68.77
2017-02-18T07:50:55.793Z,69.06
2017-02-18T07:52:11.257Z,68.77
2017-02-18T07:53:25.562Z,68.93
2017-02-18T07:54:39.777Z,69.12
2017-02-18T07:55:53.907Z,69.31
2017-02-18T07:57:08.554Z,69.31
2017-02-18T07:58:23.328Z,68.64
2017-02-18T07:59:37.571Z,68.49
2017-02-18T08:00:52.312Z,68.77
2017-02-18T08:02:07.059Z,68.55
2017-02-18T08:03:22.152Z,68.84
2017-02-18T08:04:35.886Z,68.64
2017-02-18T08:05:48.900Z,69.12
2017-02-18T08:07:02.994Z,68.93
2017-02-18T08:08:16.819Z,69.02
2017-02-18T08:09:25.995Z,69.5
2017-02-18T08:10:35.019Z,69.21
2017-02-18T08:11:44.129Z,69.6
2017-02-18T08:12:53.487Z,69.02
2017-02-18T08:14:02.687Z,69.31
2017-02-18T08:15:11.713Z,68.84
2017-02-18T08:16:21.309Z,69.02
2017-02-18T08:17:30.322Z,69.12
2017-02-18T08:18:39.434Z,69.31
2017-02-18T08:19:48.445Z,69.31
2017-02-18T08:20:57.474Z,69.7
2017-02-18T08:22:06.591Z,69.5
2017-02-18T08:23:15.959Z,69.6
2017-02-18T08:24:25.204Z,69.7
2017-02-18T08:25:34.744Z,69.6
2017-02-18T08:26:43.849Z,69.5
2017-02-18T08:27:52.869Z,69.7
2017-02-18T08:29:01.994Z,69.5
2017-02-18T08:30:11.698Z,69.5
2017-02-18T08:31:20.840Z,68.93
2017-02-18T08:32:29.892Z,69.6
2017-02-18T08:33:38.907Z,69.12
2017-02-18T08:34:47.927Z,69.21
2017-02-18T08:35:56.947Z,69.02
2017-02-18T08:37:05.960Z,69.02
2017-02-18T08:38:14.979Z,69.02
2017-02-18T08:39:23.993Z,69.12
2017-02-18T08:40:33.010Z,69.02
2017-02-18T08:41:42.026Z,69.12
2017-02-18T08:42:51.039Z,69.41
2017-02-18T08:44:00.054Z,69.02
2017-02-18T08:45:09.067Z,69.5
2017-02-18T08:46:18.081Z,69.12
2017-02-18T08:47:27.103Z,69.21
2017-02-18T08:48:36.124Z,69.41
2017-02-18T08:49:45.134Z,69.31
2017-02-18T08:50:54.991Z,69.6
2017-02-18T08:52:03.992Z,69.5
2017-02-18T08:53:13.013Z,69.6
2017-02-18T08:54:22.012Z,69.7
2017-02-18T08:55:31.020Z,70.59
2017-02-18T08:56:40.018Z,71.26
2017-02-18T08:57:49.030Z,72.79
2017-02-18T08:58:58.031Z,75.51
2017-02-18T09:00:07.057Z,76.56
2017-02-18T09:01:16.121Z,75.79
2017-02-18T09:02:26.165Z,76.84
2017-02-18T09:03:35.176Z,78.13
2017-02-18T09:04:44.195Z,78.13
2017-02-18T09:05:53.279Z,78.32
2017-02-18T09:07:03.062Z,79.13
2017-02-18T09:08:12.353Z,78.07
2017-02-18T09:09:21.709Z,79.8
2017-02-18T09:10:30.736Z,79.22
2017-02-18T09:11:39.756Z,78.69
2017-02-18T09:12:49.420Z,77.92
2017-02-18T09:13:58.610Z,77.15
2017-02-18T09:15:07.968Z,78.4
2017-02-18T09:16:16.986Z,78.11
2017-02-18T09:17:25.988Z,78.4
2017-02-18T09:18:35.005Z,77.53
2017-02-18T09:19:44.026Z,75.9
2017-02-18T09:20:53.041Z,76.19
2017-02-18T09:22:02.064Z,76.39
2017-02-18T09:23:11.068Z,76.81
2017-02-18T09:24:20.090Z,76.52
2017-02-18T09:25:29.126Z,76.71
2017-02-18T09:26:38.140Z,76.81
2017-02-18T09:27:47.145Z,76.32
2017-02-18T09:28:56.610Z,76.62
2017-02-18T09:30:05.976Z,76.23
2017-02-18T09:31:15.003Z,76.71
2017-02-18T09:32:24.045Z,76.04
2017-02-18T09:33:33.044Z,76.71
2017-02-18T09:34:42.880Z,76.14
2017-02-18T09:35:52.307Z,76.14
2017-02-18T09:37:01.313Z,76.9
2017-02-18T09:38:10.321Z,76.42
2017-02-18T09:39:19.352Z,76.17
2017-02-18T09:40:28.377Z,76.75
2017-02-18T09:41:37.395Z,76.17
2017-02-18T09:42:46.410Z,76.37
2017-02-18T09:43:55.464Z,76.94
2017-02-18T09:45:05.582Z,75.79
2017-02-18T09:46:14.598Z,76.37
2017-02-18T09:47:23.608Z,77.04
2017-02-18T09:48:32.784Z,76.37
2017-02-18T09:49:41.797Z,76.65
2017-02-18T09:50:50.827Z,77.56
2017-02-18T09:51:59.890Z,77.08
2017-02-18T09:53:08.915Z,78.42
2017-02-18T09:54:17.921Z,78.23
2017-02-18T09:55:27.336Z,77.75
2017-02-18T09:56:36.339Z,78.61
2017-02-18T09:57:45.351Z,78.23
2017-02-18T09:58:54.366Z,78.42
2017-02-18T10:00:03.793Z,78.32
2017-02-18T10:01:12.809Z,77.08
2017-02-18T10:02:21.820Z,76.98
2017-02-18T10:03:30.863Z,77.17
2017-02-18T10:04:39.875Z,76.4
2017-02-18T10:05:48.948Z,76.59
2017-02-18T10:06:57.974Z,76.12
2017-02-18T10:08:06.992Z,75.92
2017-02-18T10:09:16.018Z,75.63
2017-02-18T10:10:25.359Z,75.73
2017-02-18T10:11:34.371Z,75.25
2017-02-18T10:12:43.383Z,75.73
2017-02-18T10:13:52.396Z,75.92
2017-02-18T10:15:01.827Z,75.15
2017-02-18T10:16:11.243Z,75.06
2017-02-18T10:17:20.268Z,74.96
2017-02-18T10:18:29.275Z,75.15
2017-02-18T10:19:38.284Z,74.9
2017-02-18T10:20:47.299Z,75.1
2017-02-18T10:21:56.305Z,74.29
2017-02-18T10:23:05.345Z,74.43
2017-02-18T10:24:14.363Z,74.71
2017-02-18T10:25:23.394Z,74.62
2017-02-18T10:26:32.404Z,75
2017-02-18T10:27:41.433Z,75.96
2017-02-18T10:28:50.956Z,77.98
2017-02-18T10:30:00.154Z,77.5
2017-02-18T10:31:09.332Z,77.21
2017-02-18T10:32:18.377Z,78.4
2017-02-18T10:33:27.470Z,78.4
2017-02-18T10:34:36.481Z,78.34
2017-02-18T10:35:45.553Z,77.67
2017-02-18T10:36:54.567Z,77.48
2017-02-18T10:38:04.565Z,77.53
2017-02-18T10:39:13.592Z,77.83
2017-02-18T10:40:23.011Z,77.92
2017-02-18T10:41:32.021Z,77.38
2017-02-18T10:42:41.054Z,77.29
2017-02-18T10:43:50.065Z,76.42
2017-02-18T10:44:59.584Z,76.42
2017-02-18T10:46:08.800Z,76.71
2017-02-18T10:47:17.801Z,77.48
2017-02-18T10:48:26.826Z,77.29
2017-02-18T10:49:35.842Z,76.9
2017-02-18T10:50:44.867Z,77.19
2017-02-18T10:51:53.971Z,76.9
2017-02-18T10:53:02.988Z,76.32
2017-02-18T10:54:12.009Z,76.32
2017-02-18T10:55:21.044Z,76.32
2017-02-18T10:56:30.084Z,76.14
2017-02-18T10:57:39.082Z,76.32
2017-02-18T10:58:48.104Z,76.42
2017-02-18T10:59:57.140Z,77.86
2017-02-18T11:01:06.228Z,77.09
2017-02-18T11:02:15.229Z,76.42
2017-02-18T11:03:24.316Z,77.29
2017-02-18T11:04:33.347Z,77.29
2017-02-18T11:05:42.355Z,77.13
2017-02-18T11:06:51.747Z,77.81
2017-02-18T11:08:01.233Z,77.81
2017-02-18T11:09:11.528Z,77.51
2017-02-18T11:10:21.404Z,77.9
2017-02-18T11:11:31.149Z,76.36
2017-02-18T11:12:41.147Z,76.46
2017-02-18T11:13:51.131Z,75.31
2017-02-18T11:15:01.290Z,73.77
2017-02-18T11:16:11.206Z,74.63
2017-02-18T11:17:20.893Z,74.63
2017-02-18T11:18:30.596Z,73.67
2017-02-18T11:19:39.666Z,73.86
2017-02-18T11:20:48.989Z,75.31
2017-02-18T11:21:58.009Z,75.31
2017-02-18T11:23:08.440Z,74.54
2017-02-18T11:24:18.140Z,74.73
2017-02-18T11:25:30.902Z,74.73
2017-02-18T11:26:41.376Z,75.88
2017-02-18T11:27:53.059Z,75.31
2017-02-18T11:29:04.410Z,76.56
2017-02-18T11:30:14.702Z,75.79
2017-02-18T11:31:23.779Z,76.88
2017-02-18T11:32:33.321Z,74.25
2017-02-18T11:33:43.162Z,75.24
2017-02-18T11:34:53.030Z,75.21
2017-02-18T11:36:02.200Z,74.29
2017-02-18T11:37:11.646Z,73.86
2017-02-18T11:38:21.067Z,73.77
2017-02-18T11:39:30.078Z,73.67
2017-02-18T11:40:39.886Z,73.8
2017-02-18T11:41:50.074Z,74.57
2017-02-18T11:42:59.760Z,75.05
2017-02-18T11:44:09.327Z,74.29
2017-02-18T11:45:18.875Z,74.38
2017-02-18T11:46:28.113Z,74.19
2017-02-18T11:47:37.159Z,74.29
2017-02-18T11:48:46.186Z,75.54
2017-02-18T11:49:55.321Z,75.73
2017-02-18T11:51:05.077Z,75.82
2017-02-18T11:52:14.143Z,74.38
2017-02-18T11:53:23.150Z,73.51
2017-02-18T11:54:32.206Z,73.42
2017-02-18T11:55:41.676Z,73.22
2017-02-18T11:56:50.847Z,73.32
2017-02-18T11:57:59.928Z,73.42
2017-02-18T11:59:09.120Z,73.42
2017-02-18T12:00:18.207Z,73.99
2017-02-18T12:01:27.318Z,73.74
2017-02-18T12:02:36.365Z,73.84
2017-02-18T12:03:47.041Z,73.84
2017-02-18T12:05:00.153Z,74.03
2017-02-18T12:06:14.578Z,74.8
2017-02-18T12:07:28.568Z,74.8
2017-02-18T12:08:42.707Z,73.26
2017-02-18T12:09:58.062Z,70.56
2017-02-18T12:11:13.683Z,72.11
2017-02-18T12:12:28.244Z,73.03
2017-02-18T12:13:40.618Z,73.16
2017-02-18T12:14:55.858Z,73.36
2017-02-18T12:16:11.595Z,73.46
2017-02-18T12:17:25.926Z,73.07
2017-02-18T12:18:38.768Z,74.41
2017-02-18T12:19:54.278Z,74.03
2017-02-18T12:21:09.921Z,73.84
2017-02-18T12:22:23.481Z,73.36
2017-02-18T12:23:37.263Z,73.94
2017-02-18T12:24:51.330Z,73.46
2017-02-18T12:26:04.762Z,74.03
2017-02-18T12:27:19.598Z,73.65
2017-02-18T12:28:34.524Z,74.03
2017-02-18T12:29:48.947Z,73.26
2017-02-18T12:31:04.380Z,72.88
2017-02-18T12:32:17.071Z,73.26
2017-02-18T12:33:26.466Z,73.97
2017-02-18T12:34:35.672Z,74.93
2017-02-18T12:35:45.133Z,74.65
2017-02-18T12:36:54.393Z,74.84
2017-02-18T12:38:04.005Z,75.32
2017-02-18T12:39:13.869Z,74.93
2017-02-18T12:40:23.292Z,75.03
2017-02-18T12:41:32.667Z,75.23
2017-02-18T12:42:42.189Z,75.13
2017-02-18T12:43:51.592Z,75.03
2017-02-18T12:45:01.043Z,75.23
2017-02-18T12:46:10.373Z,74.84
2017-02-18T12:47:19.616Z,74.74
2017-02-18T12:48:28.877Z,75.8
2017-02-18T12:49:39.245Z,76.38
2017-02-18T12:50:49.024Z,75.9
2017-02-18T12:51:58.530Z,76.09
2017-02-18T12:53:07.977Z,75.51
2017-02-18T12:54:17.489Z,75.99
2017-02-18T12:55:26.616Z,75.61
2017-02-18T12:56:36.251Z,75.93
2017-02-18T12:57:46.034Z,76.13
2017-02-18T12:58:55.604Z,75.32
2017-02-18T13:00:04.735Z,75.26
2017-02-18T13:01:15.639Z,75.16
2017-02-18T13:02:25.108Z,76.13
2017-02-18T13:03:34.147Z,75.74
2017-02-18T13:04:43.168Z,75.45
2017-02-18T13:05:52.181Z,75.74
2017-02-18T13:07:01.626Z,75.45
2017-02-18T13:08:10.640Z,75.26
2017-02-18T13:09:19.651Z,75.45
2017-02-18T13:10:28.755Z,75.16
2017-02-18T13:11:37.781Z,75.07
2017-02-18T13:12:46.817Z,75.07
2017-02-18T13:13:55.843Z,75.36
2017-02-18T13:15:04.854Z,75.26
2017-02-18T13:16:13.866Z,75.16
2017-02-18T13:17:22.901Z,75.16
2017-02-18T13:18:32.346Z,75.55
2017-02-18T13:19:41.367Z,75.07
2017-02-18T13:20:50.380Z,75.07
2017-02-18T13:21:59.403Z,74.97
2017-02-18T13:23:08.423Z,75.07
2017-02-18T13:24:17.450Z,74.88
2017-02-18T13:25:26.502Z,75.16
2017-02-18T13:26:35.544Z,74.88
2017-02-18T13:27:44.570Z,74.33
2017-02-18T13:28:53.622Z,74.2
2017-02-18T13:30:02.632Z,74.2
2017-02-18T13:31:11.674Z,74.58
2017-02-18T13:32:20.700Z,74.88
2017-02-18T13:33:29.714Z,74.58
2017-02-18T13:34:38.738Z,74.43
2017-02-18T13:35:47.759Z,74.52
2017-02-18T13:36:56.773Z,74.24
2017-02-18T13:38:05.812Z,74.43
2017-02-18T13:39:14.850Z,74.52
2017-02-18T13:40:23.943Z,74.43
2017-02-18T13:41:32.964Z,74.24
2017-02-18T13:42:41.997Z,74.82
2017-02-18T13:43:51.027Z,74.24
2017-02-18T13:45:00.469Z,74.52
2017-02-18T13:46:09.481Z,74.43
2017-02-18T13:47:18.508Z,75.97
2017-02-18T13:48:27.937Z,75.1
2017-02-18T13:49:37.175Z,75.88
2017-02-18T13:50:46.731Z,75.2
2017-02-18T13:51:55.750Z,76.65
2017-02-18T13:53:04.781Z,76.26
2017-02-18T13:54:13.814Z,74.62
2017-02-18T13:55:22.869Z,76.17
2017-02-18T13:56:33.050Z,74.72
2017-02-18T13:57:42.187Z,74.91
2017-02-18T13:58:51.232Z,74.91
2017-02-18T14:00:00.274Z,74.91
2017-02-18T14:01:09.716Z,76.07
2017-02-18T14:02:18.745Z,75.62
2017-02-18T14:03:27.847Z,75.2
2017-02-18T14:04:36.875Z,75.97
2017-02-18T14:05:47.026Z,76.36
2017-02-18T14:06:56.281Z,74.95
2017-02-18T14:08:05.328Z,76.2
2017-02-18T14:09:14.764Z,75.24
2017-02-18T14:10:24.806Z,74.95
2017-02-18T14:11:33.827Z,76.45
2017-02-18T14:12:42.850Z,75.43
2017-02-18T14:13:51.880Z,75.62
2017-02-18T14:15:00.904Z,75.72
2017-02-18T14:16:10.008Z,76.3
2017-02-18T14:17:20.040Z,75.82
2017-02-18T14:18:29.111Z,74.66
2017-02-18T14:19:38.233Z,74.66
2017-02-18T14:20:47.245Z,74.95
2017-02-18T14:21:56.680Z,75.14
2017-02-18T14:23:05.701Z,74.47
2017-02-18T14:24:14.723Z,74.76
2017-02-18T14:25:23.727Z,74.57
2017-02-18T14:26:32.730Z,75.14
2017-02-18T14:27:41.759Z,75.34
2017-02-18T14:28:50.801Z,74.76
2017-02-18T14:29:59.832Z,74.76
2017-02-18T14:31:08.852Z,74.76
2017-02-18T14:32:17.872Z,74.95
2017-02-18T14:33:26.891Z,74.95
2017-02-18T14:34:35.914Z,74.66
2017-02-18T14:35:44.925Z,74.27
2017-02-18T14:36:53.963Z,74.47
2017-02-18T14:38:02.990Z,74.37
2017-02-18T14:39:12.011Z,74.47
2017-02-18T14:40:21.033Z,74.37
2017-02-18T14:41:30.055Z,73.79
2017-02-18T14:42:39.110Z,74.18
2017-02-18T14:43:48.128Z,74.57
2017-02-18T14:44:57.149Z,73.99
2017-02-18T14:46:06.159Z,73.99
2017-02-18T14:47:15.188Z,73.89
2017-02-18T14:48:24.198Z,74.08
2017-02-18T14:49:33.209Z,73.69
2017-02-18T14:50:42.689Z,73.89
2017-02-18T14:51:52.126Z,73.99
2017-02-18T14:53:01.149Z,73.99
2017-02-18T14:54:10.172Z,66.27
2017-02-18T14:55:19.214Z,60.45
2017-02-18T14:56:28.241Z,63.89
2017-02-18T14:57:37.246Z,68.71
2017-02-18T14:58:46.262Z,69.48
2017-02-18T14:59:55.292Z,70.19